sensor_id;sensor_type;location;lat;lon;timestamp;temperature;humidity
20167;DHT22;10243;49.118;8.508;2022-09-09T00:02:01;18.30;99.90
20167;DHT22;10243;49.118;8.508;2022-09-09T00:05:17;18.40;99.90
20167;DHT22;10243;49.118;8.508;2022-09-09T00:08:37;18.50;99.90
20167;DHT22;10243;49.118;8.508;2022-09-09T00:11:49;18.60;99.90
20167;DHT22;10243;49.118;8.508;2022-09-09T00:14:55;18.70;99.90
20167;DHT22;10243;49.118;8.508;2022-09-09T00:18:01;18.70;99.90
20167;DHT22;10243;49.118;8.508;2022-09-09T00:21:06;18.80;99.90
20167;DHT22;10243;49.118;8.508;2022-09-09T00:24:16;18.80;99.90
20167;DHT22;10243;49.118;8.508;2022-09-09T00:27:31;18.80;99.90
20167;DHT22;10243;49.118;8.508;2022-09-09T00:30:35;18.70;99.90
20167;DHT22;10243;49.118;8.508;2022-09-09T00:33:38;18.70;99.90
20167;DHT22;10243;49.118;8.508;2022-09-09T00:36:42;18.70;99.90
20167;DHT22;10243;49.118;8.508;2022-09-09T00:39:46;18.70;99.90
20167;DHT22;10243;49.118;8.508;2022-09-09T00:42:54;18.80;99.90
20167;DHT22;10243;49.118;8.508;2022-09-09T00:46:23;18.80;99.90
20167;DHT22;10243;49.118;8.508;2022-09-09T00:49:43;18.70;99.90
20167;DHT22;10243;49.118;8.508;2022-09-09T00:52:52;18.60;99.90
20167;DHT22;10243;49.118;8.508;2022-09-09T00:56:03;18.50;99.90
20167;DHT22;10243;49.118;8.508;2022-09-09T00:59:19;18.60;99.90
20167;DHT22;10243;49.118;8.508;2022-09-09T01:02:32;18.70;99.90
20167;DHT22;10243;49.118;8.508;2022-09-09T01:05:44;18.70;99.90
20167;DHT22;10243;49.118;8.508;2022-09-09T01:09:04;18.70;99.90
20167;DHT22;10243;49.118;8.508;2022-09-09T01:12:12;18.80;99.90
20167;DHT22;10243;49.118;8.508;2022-09-09T01:15:21;18.80;99.90
20167;DHT22;10243;49.118;8.508;2022-09-09T01:18:28;18.80;99.90
20167;DHT22;10243;49.118;8.508;2022-09-09T01:21:38;19.00;99.90
20167;DHT22;10243;49.118;8.508;2022-09-09T01:24:46;19.00;99.90
20167;DHT22;10243;49.118;8.508;2022-09-09T01:28:06;19.10;99.90
20167;DHT22;10243;49.118;8.508;2022-09-09T01:31:14;19.00;99.90
20167;DHT22;10243;49.118;8.508;2022-09-09T01:34:20;18.90;99.90
20167;DHT22;10243;49.118;8.508;2022-09-09T01:37:23;18.90;99.90
20167;DHT22;10243;49.118;8.508;2022-09-09T01:40:26;18.90;99.90
20167;DHT22;10243;49.118;8.508;2022-09-09T01:43:30;18.90;99.90
20167;DHT22;10243;49.118;8.508;2022-09-09T01:46:32;18.80;99.90
20167;DHT22;10243;49.118;8.508;2022-09-09T01:49:35;18.90;99.90
20167;DHT22;10243;49.118;8.508;2022-09-09T01:52:47;18.90;99.90
20167;DHT22;10243;49.118;8.508;2022-09-09T01:56:02;18.90;99.90
20167;DHT22;10243;49.118;8.508;2022-09-09T01:59:24;18.90;99.90
20167;DHT22;10243;49.118;8.508;2022-09-09T02:02:36;18.80;99.90
20167;DHT22;10243;49.118;8.508;2022-09-09T02:05:48;18.80;99.90
20167;DHT22;10243;49.118;8.508;2022-09-09T02:08:57;18.70;99.90
20167;DHT22;10243;49.118;8.508;2022-09-09T02:12:05;18.60;99.90
20167;DHT22;10243;49.118;8.508;2022-09-09T02:15:26;18.60;99.90
20167;DHT22;10243;49.118;8.508;2022-09-09T02:18:32;18.40;99.90
20167;DHT22;10243;49.118;8.508;2022-09-09T02:21:36;18.40;99.90
20167;DHT22;10243;49.118;8.508;2022-09-09T02:24:39;18.40;99.90
20167;DHT22;10243;49.118;8.508;2022-09-09T02:27:53;18.50;99.90
20167;DHT22;10243;49.118;8.508;2022-09-09T02:30:56;18.50;99.90
20167;DHT22;10243;49.118;8.508;2022-09-09T02:34:07;18.50;99.90
20167;DHT22;10243;49.118;8.508;2022-09-09T02:37:12;18.50;99.90
20167;DHT22;10243;49.118;8.508;2022-09-09T02:40:19;18.50;99.90
20167;DHT22;10243;49.118;8.508;2022-09-09T02:43:31;18.60;99.90
20167;DHT22;10243;49.118;8.508;2022-09-09T02:46:49;18.60;99.90
20167;DHT22;10243;49.118;8.508;2022-09-09T02:50:00;18.50;99.90
20167;DHT22;10243;49.118;8.508;2022-09-09T02:53:09;18.60;99.90
20167;DHT22;10243;49.118;8.508;2022-09-09T02:56:16;18.70;99.90
20167;DHT22;10243;49.118;8.508;2022-09-09T02:59:21;18.70;99.90
20167;DHT22;10243;49.118;8.508;2022-09-09T03:02:25;18.80;99.90
20167;DHT22;10243;49.118;8.508;2022-09-09T03:05:32;18.70;99.90
20167;DHT22;10243;49.118;8.508;2022-09-09T03:08:35;18.70;99.90
20167;DHT22;10243;49.118;8.508;2022-09-09T03:11:37;18.70;99.90
20167;DHT22;10243;49.118;8.508;2022-09-09T03:14:40;18.70;99.90
20167;DHT22;10243;49.118;8.508;2022-09-09T03:17:45;18.70;99.90
20167;DHT22;10243;49.118;8.508;2022-09-09T03:20:47;18.70;99.90
20167;DHT22;10243;49.118;8.508;2022-09-09T03:23:50;18.80;99.90
20167;DHT22;10243;49.118;8.508;2022-09-09T03:26:52;18.80;99.90
20167;DHT22;10243;49.118;8.508;2022-09-09T03:29:56;18.80;99.90
20167;DHT22;10243;49.118;8.508;2022-09-09T03:33:01;18.80;99.90
20167;DHT22;10243;49.118;8.508;2022-09-09T03:36:06;18.70;99.90
20167;DHT22;10243;49.118;8.508;2022-09-09T03:39:10;18.70;99.90
20167;DHT22;10243;49.118;8.508;2022-09-09T03:42:14;18.70;99.90
20167;DHT22;10243;49.118;8.508;2022-09-09T03:45:20;18.70;99.90
20167;DHT22;10243;49.118;8.508;2022-09-09T03:48:24;18.80;99.90
20167;DHT22;10243;49.118;8.508;2022-09-09T03:51:26;18.80;99.90
20167;DHT22;10243;49.118;8.508;2022-09-09T03:54:29;18.80;99.90
20167;DHT22;10243;49.118;8.508;2022-09-09T03:57:31;18.70;99.90
20167;DHT22;10243;49.118;8.508;2022-09-09T04:00:36;18.80;99.90
20167;DHT22;10243;49.118;8.508;2022-09-09T04:03:43;18.70;99.90
20167;DHT22;10243;49.118;8.508;2022-09-09T04:06:46;18.70;99.90
20167;DHT22;10243;49.118;8.508;2022-09-09T04:09:48;18.70;99.90
20167;DHT22;10243;49.118;8.508;2022-09-09T04:12:50;18.60;99.90
20167;DHT22;10243;49.118;8.508;2022-09-09T04:15:54;18.60;99.90
20167;DHT22;10243;49.118;8.508;2022-09-09T04:18:58;18.60;99.90
20167;DHT22;10243;49.118;8.508;2022-09-09T04:22:01;18.60;99.90
20167;DHT22;10243;49.118;8.508;2022-09-09T04:25:04;18.70;99.90
20167;DHT22;10243;49.118;8.508;2022-09-09T04:28:06;18.70;99.90
20167;DHT22;10243;49.118;8.508;2022-09-09T04:31:16;18.70;99.90
20167;DHT22;10243;49.118;8.508;2022-09-09T04:34:21;18.70;99.90
20167;DHT22;10243;49.118;8.508;2022-09-09T04:37:23;18.70;99.90
20167;DHT22;10243;49.118;8.508;2022-09-09T04:40:26;18.80;99.90
20167;DHT22;10243;49.118;8.508;2022-09-09T04:43:29;18.70;99.90
20167;DHT22;10243;49.118;8.508;2022-09-09T04:46:32;18.70;99.90
20167;DHT22;10243;49.118;8.508;2022-09-09T04:49:36;18.70;99.90
20167;DHT22;10243;49.118;8.508;2022-09-09T04:52:39;18.70;99.90
20167;DHT22;10243;49.118;8.508;2022-09-09T04:55:42;18.80;99.90
20167;DHT22;10243;49.118;8.508;2022-09-09T04:58:44;18.80;99.90
20167;DHT22;10243;49.118;8.508;2022-09-09T05:01:46;18.80;99.90
20167;DHT22;10243;49.118;8.508;2022-09-09T05:04:50;18.80;99.90
20167;DHT22;10243;49.118;8.508;2022-09-09T05:07:52;18.80;99.90
20167;DHT22;10243;49.118;8.508;2022-09-09T05:10:53;18.80;99.90
20167;DHT22;10243;49.118;8.508;2022-09-09T05:13:56;18.70;99.90
20167;DHT22;10243;49.118;8.508;2022-09-09T05:16:58;18.80;99.90
20167;DHT22;10243;49.118;8.508;2022-09-09T05:20:01;18.80;99.90
20167;DHT22;10243;49.118;8.508;2022-09-09T05:23:04;18.80;99.90
20167;DHT22;10243;49.118;8.508;2022-09-09T05:26:12;18.80;99.90
20167;DHT22;10243;49.118;8.508;2022-09-09T05:29:14;18.90;99.90
20167;DHT22;10243;49.118;8.508;2022-09-09T05:32:18;18.90;99.90
20167;DHT22;10243;49.118;8.508;2022-09-09T05:35:24;18.90;99.90
20167;DHT22;10243;49.118;8.508;2022-09-09T05:38:27;18.90;99.90
20167;DHT22;10243;49.118;8.508;2022-09-09T05:41:29;18.90;99.90
20167;DHT22;10243;49.118;8.508;2022-09-09T05:44:35;18.90;99.90
20167;DHT22;10243;49.118;8.508;2022-09-09T05:47:37;18.90;99.90
20167;DHT22;10243;49.118;8.508;2022-09-09T05:50:52;19.00;99.90
20167;DHT22;10243;49.118;8.508;2022-09-09T05:53:55;19.00;99.90
20167;DHT22;10243;49.118;8.508;2022-09-09T05:56:59;19.00;99.90
20167;DHT22;10243;49.118;8.508;2022-09-09T06:00:02;19.00;99.90
20167;DHT22;10243;49.118;8.508;2022-09-09T06:03:14;19.00;99.90
20167;DHT22;10243;49.118;8.508;2022-09-09T06:06:20;19.10;99.90
20167;DHT22;10243;49.118;8.508;2022-09-09T06:09:22;19.10;99.90
20167;DHT22;10243;49.118;8.508;2022-09-09T06:12:26;19.20;99.90
20167;DHT22;10243;49.118;8.508;2022-09-09T06:15:28;19.20;99.90
20167;DHT22;10243;49.118;8.508;2022-09-09T06:18:31;19.30;99.90
20167;DHT22;10243;49.118;8.508;2022-09-09T06:21:36;19.30;99.90
20167;DHT22;10243;49.118;8.508;2022-09-09T06:24:40;19.40;99.90
20167;DHT22;10243;49.118;8.508;2022-09-09T06:27:42;19.50;99.90
20167;DHT22;10243;49.118;8.508;2022-09-09T06:30:44;19.50;99.90
20167;DHT22;10243;49.118;8.508;2022-09-09T06:33:48;19.50;99.90
20167;DHT22;10243;49.118;8.508;2022-09-09T06:36:52;19.60;99.90
20167;DHT22;10243;49.118;8.508;2022-09-09T06:39:54;19.60;99.90
20167;DHT22;10243;49.118;8.508;2022-09-09T06:42:59;19.70;99.90
20167;DHT22;10243;49.118;8.508;2022-09-09T06:46:15;19.70;99.90
20167;DHT22;10243;49.118;8.508;2022-09-09T06:49:17;19.70;99.90
20167;DHT22;10243;49.118;8.508;2022-09-09T06:52:20;19.70;99.90
20167;DHT22;10243;49.118;8.508;2022-09-09T06:55:22;19.80;99.90
20167;DHT22;10243;49.118;8.508;2022-09-09T06:58:24;19.70;99.90
20167;DHT22;10243;49.118;8.508;2022-09-09T07:01:30;19.80;99.90
20167;DHT22;10243;49.118;8.508;2022-09-09T07:04:34;19.80;99.90
20167;DHT22;10243;49.118;8.508;2022-09-09T07:07:39;19.90;99.90
20167;DHT22;10243;49.118;8.508;2022-09-09T07:10:43;20.00;99.90
20167;DHT22;10243;49.118;8.508;2022-09-09T07:13:45;20.10;99.90
20167;DHT22;10243;49.118;8.508;2022-09-09T07:16:48;20.10;99.90
20167;DHT22;10243;49.118;8.508;2022-09-09T07:19:51;20.20;99.90
20167;DHT22;10243;49.118;8.508;2022-09-09T07:22:56;20.30;99.90
20167;DHT22;10243;49.118;8.508;2022-09-09T07:25:59;20.30;99.90
20167;DHT22;10243;49.118;8.508;2022-09-09T07:29:02;20.40;99.90
20167;DHT22;10243;49.118;8.508;2022-09-09T07:32:05;20.50;99.90
20167;DHT22;10243;49.118;8.508;2022-09-09T07:35:10;20.50;99.90
20167;DHT22;10243;49.118;8.508;2022-09-09T07:38:14;20.50;99.90
20167;DHT22;10243;49.118;8.508;2022-09-09T07:41:18;20.50;99.90
20167;DHT22;10243;49.118;8.508;2022-09-09T07:44:22;20.50;99.90
20167;DHT22;10243;49.118;8.508;2022-09-09T07:47:32;20.40;99.90
20167;DHT22;10243;49.118;8.508;2022-09-09T07:50:34;20.40;99.90
20167;DHT22;10243;49.118;8.508;2022-09-09T07:53:38;20.30;99.90
20167;DHT22;10243;49.118;8.508;2022-09-09T07:56:41;20.40;99.90
20167;DHT22;10243;49.118;8.508;2022-09-09T07:59:44;20.50;99.90
20167;DHT22;10243;49.118;8.508;2022-09-09T08:02:48;20.60;99.90
20167;DHT22;10243;49.118;8.508;2022-09-09T08:05:49;20.60;99.90
20167;DHT22;10243;49.118;8.508;2022-09-09T08:08:54;20.60;99.90
20167;DHT22;10243;49.118;8.508;2022-09-09T08:11:57;20.80;99.90
20167;DHT22;10243;49.118;8.508;2022-09-09T08:15:00;20.90;99.90
20167;DHT22;10243;49.118;8.508;2022-09-09T08:18:06;21.10;99.90
20167;DHT22;10243;49.118;8.508;2022-09-09T08:21:11;21.20;99.90
20167;DHT22;10243;49.118;8.508;2022-09-09T08:24:15;21.10;99.90
20167;DHT22;10243;49.118;8.508;2022-09-09T08:27:21;21.00;99.90
20167;DHT22;10243;49.118;8.508;2022-09-09T08:30:23;21.00;99.90
20167;DHT22;10243;49.118;8.508;2022-09-09T08:33:25;20.90;99.90
20167;DHT22;10243;49.118;8.508;2022-09-09T08:36:29;20.80;99.90
20167;DHT22;10243;49.118;8.508;2022-09-09T08:39:32;20.70;99.90
20167;DHT22;10243;49.118;8.508;2022-09-09T08:42:38;20.60;99.90
20167;DHT22;10243;49.118;8.508;2022-09-09T08:45:49;20.80;99.90
20167;DHT22;10243;49.118;8.508;2022-09-09T08:48:59;20.90;99.90
20167;DHT22;10243;49.118;8.508;2022-09-09T08:52:04;21.30;99.90
20167;DHT22;10243;49.118;8.508;2022-09-09T08:55:22;21.40;99.90
20167;DHT22;10243;49.118;8.508;2022-09-09T08:58:28;21.50;99.90
20167;DHT22;10243;49.118;8.508;2022-09-09T09:01:42;21.50;99.90
20167;DHT22;10243;49.118;8.508;2022-09-09T09:04:59;21.60;99.90
20167;DHT22;10243;49.118;8.508;2022-09-09T09:08:11;21.70;99.90
20167;DHT22;10243;49.118;8.508;2022-09-09T09:11:19;21.80;99.90
20167;DHT22;10243;49.118;8.508;2022-09-09T09:14:24;21.70;99.90
20167;DHT22;10243;49.118;8.508;2022-09-09T09:17:32;21.60;99.90
20167;DHT22;10243;49.118;8.508;2022-09-09T09:20:44;21.50;99.90
20167;DHT22;10243;49.118;8.508;2022-09-09T09:23:55;21.40;99.90
20167;DHT22;10243;49.118;8.508;2022-09-09T09:27:11;21.50;99.90
20167;DHT22;10243;49.118;8.508;2022-09-09T09:30:17;21.60;99.90
20167;DHT22;10243;49.118;8.508;2022-09-09T09:33:22;21.70;99.90
20167;DHT22;10243;49.118;8.508;2022-09-09T09:36:33;21.90;99.90
20167;DHT22;10243;49.118;8.508;2022-09-09T09:39:37;22.00;99.90
20167;DHT22;10243;49.118;8.508;2022-09-09T09:42:49;22.10;99.90
20167;DHT22;10243;49.118;8.508;2022-09-09T09:45:53;22.10;99.90
20167;DHT22;10243;49.118;8.508;2022-09-09T09:49:01;22.20;99.90
20167;DHT22;10243;49.118;8.508;2022-09-09T09:52:05;22.20;99.90
20167;DHT22;10243;49.118;8.508;2022-09-09T09:55:13;22.20;99.90
20167;DHT22;10243;49.118;8.508;2022-09-09T09:58:18;21.90;99.90
20167;DHT22;10243;49.118;8.508;2022-09-09T10:01:22;21.90;99.90
20167;DHT22;10243;49.118;8.508;2022-09-09T10:04:25;21.80;99.90
20167;DHT22;10243;49.118;8.508;2022-09-09T10:07:30;21.80;99.90
20167;DHT22;10243;49.118;8.508;2022-09-09T10:10:45;21.80;99.90
20167;DHT22;10243;49.118;8.508;2022-09-09T10:13:59;22.00;99.90
20167;DHT22;10243;49.118;8.508;2022-09-09T10:17:13;22.00;99.90
20167;DHT22;10243;49.118;8.508;2022-09-09T10:20:28;22.10;99.90
20167;DHT22;10243;49.118;8.508;2022-09-09T10:23:46;22.10;99.90
20167;DHT22;10243;49.118;8.508;2022-09-09T10:26:56;22.00;99.90
20167;DHT22;10243;49.118;8.508;2022-09-09T10:30:09;22.00;99.90
20167;DHT22;10243;49.118;8.508;2022-09-09T10:33:18;22.10;99.90
20167;DHT22;10243;49.118;8.508;2022-09-09T10:36:24;22.20;99.90
20167;DHT22;10243;49.118;8.508;2022-09-09T10:39:35;22.40;99.90
20167;DHT22;10243;49.118;8.508;2022-09-09T10:42:38;22.70;99.90
20167;DHT22;10243;49.118;8.508;2022-09-09T10:45:49;22.90;99.90
20167;DHT22;10243;49.118;8.508;2022-09-09T10:49:08;22.90;99.90
20167;DHT22;10243;49.118;8.508;2022-09-09T10:52:17;22.90;99.90
20167;DHT22;10243;49.118;8.508;2022-09-09T10:55:25;23.00;99.90
20167;DHT22;10243;49.118;8.508;2022-09-09T10:58:33;22.80;99.20
20167;DHT22;10243;49.118;8.508;2022-09-09T11:01:42;22.70;99.80
20167;DHT22;10243;49.118;8.508;2022-09-09T11:04:49;22.50;99.10
20167;DHT22;10243;49.118;8.508;2022-09-09T11:07:56;22.50;99.60
20167;DHT22;10243;49.118;8.508;2022-09-09T11:11:02;22.40;99.90
20167;DHT22;10243;49.118;8.508;2022-09-09T11:14:10;22.60;99.90
20167;DHT22;10243;49.118;8.508;2022-09-09T11:17:18;22.80;99.90
20167;DHT22;10243;49.118;8.508;2022-09-09T11:20:20;22.90;98.90
20167;DHT22;10243;49.118;8.508;2022-09-09T11:23:24;22.90;97.90
20167;DHT22;10243;49.118;8.508;2022-09-09T11:26:32;22.80;98.40
20167;DHT22;10243;49.118;8.508;2022-09-09T11:30:14;22.90;98.50
20167;DHT22;10243;49.118;8.508;2022-09-09T11:33:41;22.90;98.30
20167;DHT22;10243;49.118;8.508;2022-09-09T11:37:01;22.90;97.80
20167;DHT22;10243;49.118;8.508;2022-09-09T11:40:15;22.90;97.30
20167;DHT22;10243;49.118;8.508;2022-09-09T11:43:23;22.90;97.20
20167;DHT22;10243;49.118;8.508;2022-09-09T11:46:33;22.80;97.60
20167;DHT22;10243;49.118;8.508;2022-09-09T11:49:42;22.90;97.90
20167;DHT22;10243;49.118;8.508;2022-09-09T11:52:47;23.00;98.30
20167;DHT22;10243;49.118;8.508;2022-09-09T11:56:08;23.10;98.00
20167;DHT22;10243;49.118;8.508;2022-09-09T11:59:20;23.00;98.30
20167;DHT22;10243;49.118;8.508;2022-09-09T12:02:24;23.10;98.10
20167;DHT22;10243;49.118;8.508;2022-09-09T12:05:38;23.30;98.60
20167;DHT22;10243;49.118;8.508;2022-09-09T12:08:43;23.50;98.60
20167;DHT22;10243;49.118;8.508;2022-09-09T12:11:46;23.40;98.40
20167;DHT22;10243;49.118;8.508;2022-09-09T12:14:59;23.30;98.50
20167;DHT22;10243;49.118;8.508;2022-09-09T12:18:01;23.50;98.50
20167;DHT22;10243;49.118;8.508;2022-09-09T12:21:10;23.70;98.00
20167;DHT22;10243;49.118;8.508;2022-09-09T12:24:21;23.70;97.10
20167;DHT22;10243;49.118;8.508;2022-09-09T12:27:30;23.60;96.80
20167;DHT22;10243;49.118;8.508;2022-09-09T12:30:41;23.50;96.80
20167;DHT22;10243;49.118;8.508;2022-09-09T12:33:46;23.30;97.10
20167;DHT22;10243;49.118;8.508;2022-09-09T12:36:55;23.00;97.50
20167;DHT22;10243;49.118;8.508;2022-09-09T12:40:00;22.60;99.20
20167;DHT22;10243;49.118;8.508;2022-09-09T12:43:17;22.10;99.90
20167;DHT22;10243;49.118;8.508;2022-09-09T12:46:30;21.90;99.90
20167;DHT22;10243;49.118;8.508;2022-09-09T12:49:36;21.50;99.90
20167;DHT22;10243;49.118;8.508;2022-09-09T12:52:41;21.10;99.90
20167;DHT22;10243;49.118;8.508;2022-09-09T12:55:49;21.10;99.90
20167;DHT22;10243;49.118;8.508;2022-09-09T12:58:54;21.10;99.90
20167;DHT22;10243;49.118;8.508;2022-09-09T13:01:57;20.90;99.90
20167;DHT22;10243;49.118;8.508;2022-09-09T13:05:08;20.90;99.90
20167;DHT22;10243;49.118;8.508;2022-09-09T13:08:17;20.90;99.90
20167;DHT22;10243;49.118;8.508;2022-09-09T13:11:23;20.90;99.90
20167;DHT22;10243;49.118;8.508;2022-09-09T13:14:28;20.90;99.90
20167;DHT22;10243;49.118;8.508;2022-09-09T13:17:33;20.80;99.90
20167;DHT22;10243;49.118;8.508;2022-09-09T13:20:35;20.50;99.90
20167;DHT22;10243;49.118;8.508;2022-09-09T13:23:39;20.70;99.90
20167;DHT22;10243;49.118;8.508;2022-09-09T13:26:40;20.90;99.90
20167;DHT22;10243;49.118;8.508;2022-09-09T13:29:51;21.10;99.90
20167;DHT22;10243;49.118;8.508;2022-09-09T13:33:20;21.10;99.90
20167;DHT22;10243;49.118;8.508;2022-09-09T13:36:29;21.30;99.90
20167;DHT22;10243;49.118;8.508;2022-09-09T13:39:34;21.40;99.90
20167;DHT22;10243;49.118;8.508;2022-09-09T13:42:40;21.20;99.90
20167;DHT22;10243;49.118;8.508;2022-09-09T13:45:53;21.30;99.90
20167;DHT22;10243;49.118;8.508;2022-09-09T13:48:57;21.30;99.90
20167;DHT22;10243;49.118;8.508;2022-09-09T13:52:04;21.30;99.90
20167;DHT22;10243;49.118;8.508;2022-09-09T13:55:09;21.30;99.90
20167;DHT22;10243;49.118;8.508;2022-09-09T13:58:16;21.40;99.90
20167;DHT22;10243;49.118;8.508;2022-09-09T14:01:18;21.70;99.90
20167;DHT22;10243;49.118;8.508;2022-09-09T14:04:20;21.70;99.90
20167;DHT22;10243;49.118;8.508;2022-09-09T14:07:22;21.70;99.90
20167;DHT22;10243;49.118;8.508;2022-09-09T14:10:27;21.40;99.90
20167;DHT22;10243;49.118;8.508;2022-09-09T14:13:29;21.30;99.90
20167;DHT22;10243;49.118;8.508;2022-09-09T14:16:30;21.20;99.90
20167;DHT22;10243;49.118;8.508;2022-09-09T14:19:33;21.20;99.90
20167;DHT22;10243;49.118;8.508;2022-09-09T14:22:37;21.40;99.90
20167;DHT22;10243;49.118;8.508;2022-09-09T14:25:43;21.50;99.90
20167;DHT22;10243;49.118;8.508;2022-09-09T14:28:45;21.70;99.90
20167;DHT22;10243;49.118;8.508;2022-09-09T14:31:47;21.90;99.90
20167;DHT22;10243;49.118;8.508;2022-09-09T14:34:49;22.00;99.90
20167;DHT22;10243;49.118;8.508;2022-09-09T14:37:51;21.90;99.90
20167;DHT22;10243;49.118;8.508;2022-09-09T14:40:54;21.60;99.90
20167;DHT22;10243;49.118;8.508;2022-09-09T14:43:56;21.80;99.90
20167;DHT22;10243;49.118;8.508;2022-09-09T14:46:58;21.90;99.90
20167;DHT22;10243;49.118;8.508;2022-09-09T14:50:00;22.10;99.90
20167;DHT22;10243;49.118;8.508;2022-09-09T14:53:04;22.30;99.90
20167;DHT22;10243;49.118;8.508;2022-09-09T14:56:09;22.30;99.90
20167;DHT22;10243;49.118;8.508;2022-09-09T14:59:12;22.20;99.90
20167;DHT22;10243;49.118;8.508;2022-09-09T15:02:14;22.00;99.90
20167;DHT22;10243;49.118;8.508;2022-09-09T15:05:15;21.80;99.90
20167;DHT22;10243;49.118;8.508;2022-09-09T15:08:17;21.60;99.90
20167;DHT22;10243;49.118;8.508;2022-09-09T15:11:21;21.40;99.90
20167;DHT22;10243;49.118;8.508;2022-09-09T15:14:25;21.30;99.90
20167;DHT22;10243;49.118;8.508;2022-09-09T15:17:27;21.10;99.90
20167;DHT22;10243;49.118;8.508;2022-09-09T15:20:29;21.00;99.90
20167;DHT22;10243;49.118;8.508;2022-09-09T15:23:31;21.00;99.90
20167;DHT22;10243;49.118;8.508;2022-09-09T15:26:36;21.00;99.90
20167;DHT22;10243;49.118;8.508;2022-09-09T15:29:43;21.10;99.90
20167;DHT22;10243;49.118;8.508;2022-09-09T15:32:45;21.40;99.90
20167;DHT22;10243;49.118;8.508;2022-09-09T15:35:49;21.40;99.90
20167;DHT22;10243;49.118;8.508;2022-09-09T15:38:57;21.70;99.90
20167;DHT22;10243;49.118;8.508;2022-09-09T15:42:02;21.50;99.90
20167;DHT22;10243;49.118;8.508;2022-09-09T15:45:05;21.60;99.90
20167;DHT22;10243;49.118;8.508;2022-09-09T15:48:07;21.60;99.90
20167;DHT22;10243;49.118;8.508;2022-09-09T15:51:09;21.40;99.90
20167;DHT22;10243;49.118;8.508;2022-09-09T15:54:13;21.40;99.90
20167;DHT22;10243;49.118;8.508;2022-09-09T15:57:17;21.50;99.90
20167;DHT22;10243;49.118;8.508;2022-09-09T16:00:19;21.70;99.90
20167;DHT22;10243;49.118;8.508;2022-09-09T16:03:23;21.80;99.90
20167;DHT22;10243;49.118;8.508;2022-09-09T16:06:26;21.80;99.90
20167;DHT22;10243;49.118;8.508;2022-09-09T16:09:30;21.60;99.90
20167;DHT22;10243;49.118;8.508;2022-09-09T16:12:33;21.40;99.90
20167;DHT22;10243;49.118;8.508;2022-09-09T16:15:35;21.20;99.90
20167;DHT22;10243;49.118;8.508;2022-09-09T16:18:39;21.10;99.90
20167;DHT22;10243;49.118;8.508;2022-09-09T16:21:42;21.00;99.90
20167;DHT22;10243;49.118;8.508;2022-09-09T16:24:48;20.90;99.90
20167;DHT22;10243;49.118;8.508;2022-09-09T16:27:51;21.00;99.90
20167;DHT22;10243;49.118;8.508;2022-09-09T16:30:54;20.70;99.90
20167;DHT22;10243;49.118;8.508;2022-09-09T16:33:56;20.80;99.90
20167;DHT22;10243;49.118;8.508;2022-09-09T16:36:58;20.80;99.90
20167;DHT22;10243;49.118;8.508;2022-09-09T16:40:02;20.80;99.90
20167;DHT22;10243;49.118;8.508;2022-09-09T16:43:06;20.80;99.90
20167;DHT22;10243;49.118;8.508;2022-09-09T16:46:12;20.80;99.90
20167;DHT22;10243;49.118;8.508;2022-09-09T16:49:15;20.70;99.90
20167;DHT22;10243;49.118;8.508;2022-09-09T16:52:17;20.60;99.90
20167;DHT22;10243;49.118;8.508;2022-09-09T16:55:19;20.00;99.90
20167;DHT22;10243;49.118;8.508;2022-09-09T16:58:23;19.80;99.90
20167;DHT22;10243;49.118;8.508;2022-09-09T17:01:26;19.70;99.90
20167;DHT22;10243;49.118;8.508;2022-09-09T17:04:28;19.70;99.90
20167;DHT22;10243;49.118;8.508;2022-09-09T17:07:31;19.70;99.90
20167;DHT22;10243;49.118;8.508;2022-09-09T17:10:33;19.80;99.90
20167;DHT22;10243;49.118;8.508;2022-09-09T17:13:37;19.70;99.90
20167;DHT22;10243;49.118;8.508;2022-09-09T17:16:39;19.70;99.90
20167;DHT22;10243;49.118;8.508;2022-09-09T17:19:41;19.60;99.90
20167;DHT22;10243;49.118;8.508;2022-09-09T17:22:43;19.70;99.90
20167;DHT22;10243;49.118;8.508;2022-09-09T17:25:44;19.70;99.90
20167;DHT22;10243;49.118;8.508;2022-09-09T17:28:48;19.70;99.90
20167;DHT22;10243;49.118;8.508;2022-09-09T17:31:50;19.70;99.90
20167;DHT22;10243;49.118;8.508;2022-09-09T17:34:51;19.70;99.90
20167;DHT22;10243;49.118;8.508;2022-09-09T17:37:54;19.70;99.90
20167;DHT22;10243;49.118;8.508;2022-09-09T17:41:03;19.60;99.90
20167;DHT22;10243;49.118;8.508;2022-09-09T17:44:08;19.60;99.90
20167;DHT22;10243;49.118;8.508;2022-09-09T17:47:10;19.50;99.90
20167;DHT22;10243;49.118;8.508;2022-09-09T17:50:12;19.50;99.90
20167;DHT22;10243;49.118;8.508;2022-09-09T21:57:41;19.00;99.90
20167;DHT22;10243;49.118;8.508;2022-09-09T22:00:45;18.90;99.90
20167;DHT22;10243;49.118;8.508;2022-09-09T22:03:49;18.90;99.90
20167;DHT22;10243;49.118;8.508;2022-09-09T22:06:51;18.90;99.90
20167;DHT22;10243;49.118;8.508;2022-09-09T22:09:53;18.90;99.90
20167;DHT22;10243;49.118;8.508;2022-09-09T22:12:55;18.80;99.90
20167;DHT22;10243;49.118;8.508;2022-09-09T22:15:56;18.80;99.90
20167;DHT22;10243;49.118;8.508;2022-09-09T22:19:00;18.80;99.90
20167;DHT22;10243;49.118;8.508;2022-09-09T22:22:02;18.80;99.90
20167;DHT22;10243;49.118;8.508;2022-09-09T22:25:05;18.80;99.90
20167;DHT22;10243;49.118;8.508;2022-09-09T22:28:08;18.70;99.90
20167;DHT22;10243;49.118;8.508;2022-09-09T22:31:11;18.80;99.90
20167;DHT22;10243;49.118;8.508;2022-09-09T22:34:14;18.70;99.90
20167;DHT22;10243;49.118;8.508;2022-09-09T22:37:17;18.50;99.90
20167;DHT22;10243;49.118;8.508;2022-09-09T22:40:19;18.40;99.90
20167;DHT22;10243;49.118;8.508;2022-09-09T22:43:22;18.40;99.90
20167;DHT22;10243;49.118;8.508;2022-09-09T22:46:23;18.40;99.90
20167;DHT22;10243;49.118;8.508;2022-09-09T22:49:27;18.40;99.90
20167;DHT22;10243;49.118;8.508;2022-09-09T22:52:29;18.50;99.90
20167;DHT22;10243;49.118;8.508;2022-09-09T22:55:31;18.50;99.90
20167;DHT22;10243;49.118;8.508;2022-09-09T22:58:35;18.60;99.90
20167;DHT22;10243;49.118;8.508;2022-09-09T23:01:37;18.50;99.90
20167;DHT22;10243;49.118;8.508;2022-09-09T23:04:40;18.50;99.90
20167;DHT22;10243;49.118;8.508;2022-09-09T23:07:44;18.60;99.90
20167;DHT22;10243;49.118;8.508;2022-09-09T23:10:46;18.60;99.90
20167;DHT22;10243;49.118;8.508;2022-09-09T23:13:50;18.60;99.90
20167;DHT22;10243;49.118;8.508;2022-09-09T23:16:52;18.60;99.90
20167;DHT22;10243;49.118;8.508;2022-09-09T23:19:56;18.60;99.90
20167;DHT22;10243;49.118;8.508;2022-09-09T23:22:58;18.60;99.90
20167;DHT22;10243;49.118;8.508;2022-09-09T23:26:01;18.60;99.90
20167;DHT22;10243;49.118;8.508;2022-09-09T23:29:03;18.50;99.90
20167;DHT22;10243;49.118;8.508;2022-09-09T23:32:05;18.50;99.90
20167;DHT22;10243;49.118;8.508;2022-09-09T23:35:09;18.50;99.90
20167;DHT22;10243;49.118;8.508;2022-09-09T23:38:10;18.40;99.90